sensor_id;sensor_type;location;lat;lon;timestamp;temperature;humidity
73141;SHT31;61339;50.558;4.696;2023-08-08T00:01:17;13.71;80.33
73141;SHT31;61339;50.558;4.696;2023-08-08T00:03:42;13.62;80.63
73141;SHT31;61339;50.558;4.696;2023-08-08T00:06:08;13.53;80.96
73141;SHT31;61339;50.558;4.696;2023-08-08T00:08:33;13.58;80.88
73141;SHT31;61339;50.558;4.696;2023-08-08T00:10:58;13.57;81.02
73141;SHT31;61339;50.558;4.696;2023-08-08T00:13:24;13.55;81.06
73141;SHT31;61339;50.558;4.696;2023-08-08T00:15:49;13.47;81.38
73141;SHT31;61339;50.558;4.696;2023-08-08T00:18:15;13.55;81.36
73141;SHT31;61339;50.558;4.696;2023-08-08T00:20:40;13.47;81.66
73141;SHT31;61339;50.558;4.696;2023-08-08T00:23:05;13.41;81.61
73141;SHT31;61339;50.558;4.696;2023-08-08T00:25:31;13.47;81.63
73141;SHT31;61339;50.558;4.696;2023-08-08T00:27:57;13.39;81.86
73141;SHT31;61339;50.558;4.696;2023-08-08T00:30:22;13.33;81.93
73141;SHT31;61339;50.558;4.696;2023-08-08T00:32:47;13.30;82.01
73141;SHT31;61339;50.558;4.696;2023-08-08T00:35:13;13.24;82.26
73141;SHT31;61339;50.558;4.696;2023-08-08T00:37:38;13.17;82.53
73141;SHT31;61339;50.558;4.696;2023-08-08T00:40:04;13.16;82.48
73141;SHT31;61339;50.558;4.696;2023-08-08T00:42:30;13.19;82.46
73141;SHT31;61339;50.558;4.696;2023-08-08T00:44:56;13.13;82.77
73141;SHT31;61339;50.558;4.696;2023-08-08T00:47:27;13.07;82.75
73141;SHT31;61339;50.558;4.696;2023-08-08T00:49:53;13.03;83.08
73141;SHT31;61339;50.558;4.696;2023-08-08T00:52:18;13.03;83.10
73141;SHT31;61339;50.558;4.696;2023-08-08T00:54:44;12.97;83.30
73141;SHT31;61339;50.558;4.696;2023-08-08T00:57:09;12.96;83.54
73141;SHT31;61339;50.558;4.696;2023-08-08T00:59:35;12.93;83.68
73141;SHT31;61339;50.558;4.696;2023-08-08T01:02:00;12.85;84.00
73141;SHT31;61339;50.558;4.696;2023-08-08T01:04:26;12.88;84.10
73141;SHT31;61339;50.558;4.696;2023-08-08T01:07:24;12.91;84.12
73141;SHT31;61339;50.558;4.696;2023-08-08T01:10:10;12.82;84.32
73141;SHT31;61339;50.558;4.696;2023-08-08T01:12:40;12.79;84.49
73141;SHT31;61339;50.558;4.696;2023-08-08T01:15:07;12.83;84.72
73141;SHT31;61339;50.558;4.696;2023-08-08T01:17:35;12.81;84.73
73141;SHT31;61339;50.558;4.696;2023-08-08T01:20:02;12.78;84.92
73141;SHT31;61339;50.558;4.696;2023-08-08T01:22:39;12.76;84.79
73141;SHT31;61339;50.558;4.696;2023-08-08T01:25:06;12.79;84.89
73141;SHT31;61339;50.558;4.696;2023-08-08T01:27:32;12.75;85.08
73141;SHT31;61339;50.558;4.696;2023-08-08T01:29:58;12.72;85.21
73141;SHT31;61339;50.558;4.696;2023-08-08T01:32:23;12.72;85.13
73141;SHT31;61339;50.558;4.696;2023-08-08T01:34:49;12.72;85.24
73141;SHT31;61339;50.558;4.696;2023-08-08T01:37:20;12.63;85.51
73141;SHT31;61339;50.558;4.696;2023-08-08T01:39:48;12.66;85.62
73141;SHT31;61339;50.558;4.696;2023-08-08T01:42:15;12.63;85.57
73141;SHT31;61339;50.558;4.696;2023-08-08T01:44:43;12.65;85.62
73141;SHT31;61339;50.558;4.696;2023-08-08T01:47:09;12.62;85.73
73141;SHT31;61339;50.558;4.696;2023-08-08T01:49:34;12.58;85.88
73141;SHT31;61339;50.558;4.696;2023-08-08T01:52:00;12.56;86.05
73141;SHT31;61339;50.558;4.696;2023-08-08T01:54:25;12.62;85.85
73141;SHT31;61339;50.558;4.696;2023-08-08T01:56:51;12.54;86.02
73141;SHT31;61339;50.558;4.696;2023-08-08T01:59:16;12.51;86.09
73141;SHT31;61339;50.558;4.696;2023-08-08T02:01:42;12.51;86.28
73141;SHT31;61339;50.558;4.696;2023-08-08T02:04:07;12.48;86.35
73141;SHT31;61339;50.558;4.696;2023-08-08T02:06:32;12.56;86.28
73141;SHT31;61339;50.558;4.696;2023-08-08T02:08:58;12.52;86.19
73141;SHT31;61339;50.558;4.696;2023-08-08T02:11:23;12.48;86.46
73141;SHT31;61339;50.558;4.696;2023-08-08T02:13:49;12.49;86.56
73141;SHT31;61339;50.558;4.696;2023-08-08T02:16:14;12.46;86.55
73141;SHT31;61339;50.558;4.696;2023-08-08T02:18:40;12.41;86.70
73141;SHT31;61339;50.558;4.696;2023-08-08T02:21:07;12.41;86.84
73141;SHT31;61339;50.558;4.696;2023-08-08T02:23:33;12.42;86.99
73141;SHT31;61339;50.558;4.696;2023-08-08T02:25:58;12.37;87.09
73141;SHT31;61339;50.558;4.696;2023-08-08T02:28:24;12.37;87.18
73141;SHT31;61339;50.558;4.696;2023-08-08T02:30:49;12.37;87.15
73141;SHT31;61339;50.558;4.696;2023-08-08T02:33:15;12.35;87.33
73141;SHT31;61339;50.558;4.696;2023-08-08T02:35:40;12.40;87.30
73141;SHT31;61339;50.558;4.696;2023-08-08T02:38:06;12.38;87.34
73141;SHT31;61339;50.558;4.696;2023-08-08T02:43:10;12.37;87.38
73141;SHT31;61339;50.558;4.696;2023-08-08T02:45:36;12.37;87.47
73141;SHT31;61339;50.558;4.696;2023-08-08T02:48:01;12.34;87.46
73141;SHT31;61339;50.558;4.696;2023-08-08T02:50:27;12.25;87.61
73141;SHT31;61339;50.558;4.696;2023-08-08T02:52:52;12.24;87.65
73141;SHT31;61339;50.558;4.696;2023-08-08T02:55:17;12.23;87.65
73141;SHT31;61339;50.558;4.696;2023-08-08T02:57:43;12.18;87.85
73141;SHT31;61339;50.558;4.696;2023-08-08T03:00:09;12.21;87.83
73141;SHT31;61339;50.558;4.696;2023-08-08T03:02:36;12.16;87.86
73141;SHT31;61339;50.558;4.696;2023-08-08T03:05:01;12.13;88.06
73141;SHT31;61339;50.558;4.696;2023-08-08T03:07:27;12.08;88.08
73141;SHT31;61339;50.558;4.696;2023-08-08T03:09:52;12.07;88.23
73141;SHT31;61339;50.558;4.696;2023-08-08T03:12:18;12.04;88.37
73141;SHT31;61339;50.558;4.696;2023-08-08T03:14:43;12.04;88.51
73141;SHT31;61339;50.558;4.696;2023-08-08T03:17:09;12.07;88.51
73141;SHT31;61339;50.558;4.696;2023-08-08T03:19:34;12.07;88.57
73141;SHT31;61339;50.558;4.696;2023-08-08T03:22:00;12.08;88.59
73141;SHT31;61339;50.558;4.696;2023-08-08T03:24:25;12.03;88.72
73141;SHT31;61339;50.558;4.696;2023-08-08T03:26:51;12.05;88.71
73141;SHT31;61339;50.558;4.696;2023-08-08T03:29:16;12.03;88.84
73141;SHT31;61339;50.558;4.696;2023-08-08T03:31:41;12.05;88.96
73141;SHT31;61339;50.558;4.696;2023-08-08T03:34:07;12.00;89.15
73141;SHT31;61339;50.558;4.696;2023-08-08T03:36:32;12.03;89.25
73141;SHT31;61339;50.558;4.696;2023-08-08T03:38:58;12.08;89.15
73141;SHT31;61339;50.558;4.696;2023-08-08T03:41:23;12.00;89.17
73141;SHT31;61339;50.558;4.696;2023-08-08T03:43:49;12.01;89.28
73141;SHT31;61339;50.558;4.696;2023-08-08T03:46:14;11.98;89.43
73141;SHT31;61339;50.558;4.696;2023-08-08T03:48:40;11.95;89.42
73141;SHT31;61339;50.558;4.696;2023-08-08T03:51:05;11.93;89.46
73141;SHT31;61339;50.558;4.696;2023-08-08T03:53:32;12.01;89.50
73141;SHT31;61339;50.558;4.696;2023-08-08T03:55:57;11.98;89.47
73141;SHT31;61339;50.558;4.696;2023-08-08T03:58:23;12.03;89.22
73141;SHT31;61339;50.558;4.696;2023-08-08T04:00:48;11.98;89.53
73141;SHT31;61339;50.558;4.696;2023-08-08T04:03:14;11.98;89.56
73141;SHT31;61339;50.558;4.696;2023-08-08T04:05:43;12.04;89.45
73141;SHT31;61339;50.558;4.696;2023-08-08T04:08:11;12.10;89.19
73141;SHT31;61339;50.558;4.696;2023-08-08T04:10:37;12.14;89.13
73141;SHT31;61339;50.558;4.696;2023-08-08T04:13:02;12.24;88.84
73141;SHT31;61339;50.558;4.696;2023-08-08T04:15:28;12.23;88.60
73141;SHT31;61339;50.558;4.696;2023-08-08T04:17:53;12.21;88.75
73141;SHT31;61339;50.558;4.696;2023-08-08T04:20:19;12.16;89.00
73141;SHT31;61339;50.558;4.696;2023-08-08T04:22:44;12.20;88.75
73141;SHT31;61339;50.558;4.696;2023-08-08T04:25:10;12.24;88.56
73141;SHT31;61339;50.558;4.696;2023-08-08T04:27:35;12.35;88.49
73141;SHT31;61339;50.558;4.696;2023-08-08T04:30:01;12.41;88.33
73141;SHT31;61339;50.558;4.696;2023-08-08T04:32:28;12.49;88.08
73141;SHT31;61339;50.558;4.696;2023-08-08T04:34:53;12.51;87.89
73141;SHT31;61339;50.558;4.696;2023-08-08T04:37:19;12.56;87.93
73141;SHT31;61339;50.558;4.696;2023-08-08T04:39:44;12.54;87.99
73141;SHT31;61339;50.558;4.696;2023-08-08T04:42:09;12.48;88.11
73141;SHT31;61339;50.558;4.696;2023-08-08T04:44:35;12.45;88.43
73141;SHT31;61339;50.558;4.696;2023-08-08T04:47:00;12.42;88.72
73141;SHT31;61339;50.558;4.696;2023-08-08T04:49:26;12.35;89.02
73141;SHT31;61339;50.558;4.696;2023-08-08T04:51:51;12.31;89.22
73141;SHT31;61339;50.558;4.696;2023-08-08T04:54:16;12.30;89.30
73141;SHT31;61339;50.558;4.696;2023-08-08T04:56:42;12.25;89.39
73141;SHT31;61339;50.558;4.696;2023-08-08T04:59:07;12.28;89.43
73141;SHT31;61339;50.558;4.696;2023-08-08T05:01:33;12.30;89.50
73141;SHT31;61339;50.558;4.696;2023-08-08T05:03:58;12.28;89.46
73141;SHT31;61339;50.558;4.696;2023-08-08T05:06:24;12.25;89.51
73141;SHT31;61339;50.558;4.696;2023-08-08T05:08:51;12.27;89.55
73141;SHT31;61339;50.558;4.696;2023-08-08T05:11:17;12.30;89.48
73141;SHT31;61339;50.558;4.696;2023-08-08T05:13:42;12.32;89.44
73141;SHT31;61339;50.558;4.696;2023-08-08T05:16:08;12.35;89.51
73141;SHT31;61339;50.558;4.696;2023-08-08T05:18:34;12.41;89.39
73141;SHT31;61339;50.558;4.696;2023-08-08T05:20:59;12.52;89.03
73141;SHT31;61339;50.558;4.696;2023-08-08T05:23:25;12.63;88.65
73141;SHT31;61339;50.558;4.696;2023-08-08T05:25:50;12.78;88.22
73141;SHT31;61339;50.558;4.696;2023-08-08T05:28:16;12.91;87.89
73141;SHT31;61339;50.558;4.696;2023-08-08T05:30:41;12.97;87.60
73141;SHT31;61339;50.558;4.696;2023-08-08T05:33:07;13.13;87.14
73141;SHT31;61339;50.558;4.696;2023-08-08T05:35:32;13.22;86.81
73141;SHT31;61339;50.558;4.696;2023-08-08T05:37:57;13.31;86.45
73141;SHT31;61339;50.558;4.696;2023-08-08T05:40:23;13.44;86.07
73141;SHT31;61339;50.558;4.696;2023-08-08T05:42:48;13.57;85.75
73141;SHT31;61339;50.558;4.696;2023-08-08T05:45:14;13.72;85.28
73141;SHT31;61339;50.558;4.696;2023-08-08T05:47:39;13.91;84.72
73141;SHT31;61339;50.558;4.696;2023-08-08T05:50:06;14.05;84.16
73141;SHT31;61339;50.558;4.696;2023-08-08T05:52:32;14.21;83.81
73141;SHT31;61339;50.558;4.696;2023-08-08T05:54:58;14.16;83.80
73141;SHT31;61339;50.558;4.696;2023-08-08T05:57:25;14.23;83.77
73141;SHT31;61339;50.558;4.696;2023-08-08T05:59:51;14.44;82.90
73141;SHT31;61339;50.558;4.696;2023-08-08T06:02:16;14.53;82.73
73141;SHT31;61339;50.558;4.696;2023-08-08T06:04:42;14.47;82.97
73141;SHT31;61339;50.558;4.696;2023-08-08T06:07:07;14.30;83.54
73141;SHT31;61339;50.558;4.696;2023-08-08T06:09:33;14.36;83.41
73141;SHT31;61339;50.558;4.696;2023-08-08T06:11:58;14.51;83.03
73141;SHT31;61339;50.558;4.696;2023-08-08T06:14:24;14.88;82.16
73141;SHT31;61339;50.558;4.696;2023-08-08T06:16:49;15.19;80.96
73141;SHT31;61339;50.558;4.696;2023-08-08T06:19:15;15.38;80.09
73141;SHT31;61339;50.558;4.696;2023-08-08T06:21:41;15.43;80.08
73141;SHT31;61339;50.558;4.696;2023-08-08T06:24:06;15.72;79.06
73141;SHT31;61339;50.558;4.696;2023-08-08T06:26:32;15.87;78.19
73141;SHT31;61339;50.558;4.696;2023-08-08T06:28:57;16.16;77.57
73141;SHT31;61339;50.558;4.696;2023-08-08T06:31:23;16.42;76.66
73141;SHT31;61339;50.558;4.696;2023-08-08T06:33:48;16.24;77.33
73141;SHT31;61339;50.558;4.696;2023-08-08T06:36:14;16.62;76.22
73141;SHT31;61339;50.558;4.696;2023-08-08T06:38:39;16.80;75.58
73141;SHT31;61339;50.558;4.696;2023-08-08T06:41:05;16.67;75.97
73141;SHT31;61339;50.558;4.696;2023-08-08T06:43:31;16.93;75.55
73141;SHT31;61339;50.558;4.696;2023-08-08T06:45:56;16.93;75.05
73141;SHT31;61339;50.558;4.696;2023-08-08T06:48:22;16.72;76.08
73141;SHT31;61339;50.558;4.696;2023-08-08T06:50:47;16.68;76.25
73141;SHT31;61339;50.558;4.696;2023-08-08T06:53:13;16.76;76.24
73141;SHT31;61339;50.558;4.696;2023-08-08T06:55:38;16.69;76.48
73141;SHT31;61339;50.558;4.696;2023-08-08T06:58:04;16.95;75.78
73141;SHT31;61339;50.558;4.696;2023-08-08T07:00:29;17.30;74.84
73141;SHT31;61339;50.558;4.696;2023-08-08T07:02:55;17.43;74.64
73141;SHT31;61339;50.558;4.696;2023-08-08T07:05:20;17.68;73.81
73141;SHT31;61339;50.558;4.696;2023-08-08T07:07:49;17.36;74.02
73141;SHT31;61339;50.558;4.696;2023-08-08T07:10:15;17.16;74.78
73141;SHT31;61339;50.558;4.696;2023-08-08T07:12:41;16.98;75.48
73141;SHT31;61339;50.558;4.696;2023-08-08T07:15:07;16.88;75.92
73141;SHT31;61339;50.558;4.696;2023-08-08T07:17:33;16.86;76.27
73141;SHT31;61339;50.558;4.696;2023-08-08T07:19:58;16.89;76.42
73141;SHT31;61339;50.558;4.696;2023-08-08T07:22:24;16.86;76.44
73141;SHT31;61339;50.558;4.696;2023-08-08T07:24:49;16.98;75.89
73141;SHT31;61339;50.558;4.696;2023-08-08T07:27:15;16.99;75.57
73141;SHT31;61339;50.558;4.696;2023-08-08T07:29:40;17.05;75.61
73141;SHT31;61339;50.558;4.696;2023-08-08T07:32:06;17.06;75.18
73141;SHT31;61339;50.558;4.696;2023-08-08T07:34:31;17.15;75.08
73141;SHT31;61339;50.558;4.696;2023-08-08T07:36:57;17.15;74.98
73141;SHT31;61339;50.558;4.696;2023-08-08T07:39:23;17.08;75.62
73141;SHT31;61339;50.558;4.696;2023-08-08T07:41:48;17.15;75.47
73141;SHT31;61339;50.558;4.696;2023-08-08T07:44:14;17.06;75.39
73141;SHT31;61339;50.558;4.696;2023-08-08T07:46:39;17.02;75.19
73141;SHT31;61339;50.558;4.696;2023-08-08T07:49:05;16.96;75.66
73141;SHT31;61339;50.558;4.696;2023-08-08T07:51:31;16.85;76.01
73141;SHT31;61339;50.558;4.696;2023-08-08T07:53:58;16.96;75.78
73141;SHT31;61339;50.558;4.696;2023-08-08T07:56:23;17.09;75.48
73141;SHT31;61339;50.558;4.696;2023-08-08T07:58:48;17.19;75.07
73141;SHT31;61339;50.558;4.696;2023-08-08T08:01:14;17.29;74.66
73141;SHT31;61339;50.558;4.696;2023-08-08T08:03:40;17.63;73.63
73141;SHT31;61339;50.558;4.696;2023-08-08T08:06:05;17.73;73.28
73141;SHT31;61339;50.558;4.696;2023-08-08T08:08:31;17.68;72.94
73141;SHT31;61339;50.558;4.696;2023-08-08T08:10:56;17.94;72.55
73141;SHT31;61339;50.558;4.696;2023-08-08T08:13:22;18.04;71.30
73141;SHT31;61339;50.558;4.696;2023-08-08T08:15:47;18.18;70.79
73141;SHT31;61339;50.558;4.696;2023-08-08T08:18:13;18.29;70.42
73141;SHT31;61339;50.558;4.696;2023-08-08T08:20:39;18.46;69.93
73141;SHT31;61339;50.558;4.696;2023-08-08T08:23:05;18.35;69.37
73141;SHT31;61339;50.558;4.696;2023-08-08T08:25:30;18.46;69.32
73141;SHT31;61339;50.558;4.696;2023-08-08T08:27:57;18.45;68.29
73141;SHT31;61339;50.558;4.696;2023-08-08T08:30:23;18.66;67.93
73141;SHT31;61339;50.558;4.696;2023-08-08T08:32:51;18.86;67.26
73141;SHT31;61339;50.558;4.696;2023-08-08T08:35:17;18.70;67.41
73141;SHT31;61339;50.558;4.696;2023-08-08T08:37:43;18.67;67.46
73141;SHT31;61339;50.558;4.696;2023-08-08T08:40:09;19.00;66.04
73141;SHT31;61339;50.558;4.696;2023-08-08T08:42:35;19.07;65.95
73141;SHT31;61339;50.558;4.696;2023-08-08T08:45:04;19.01;66.06
73141;SHT31;61339;50.558;4.696;2023-08-08T08:47:31;18.94;67.04
73141;SHT31;61339;50.558;4.696;2023-08-08T08:49:57;18.87;66.96
73141;SHT31;61339;50.558;4.696;2023-08-08T08:52:23;18.80;66.87
73141;SHT31;61339;50.558;4.696;2023-08-08T08:54:50;19.03;66.93
73141;SHT31;61339;50.558;4.696;2023-08-08T08:57:17;19.25;65.59
73141;SHT31;61339;50.558;4.696;2023-08-08T08:59:42;19.56;63.97
73141;SHT31;61339;50.558;4.696;2023-08-08T09:02:08;19.93;63.66
73141;SHT31;61339;50.558;4.696;2023-08-08T09:04:36;20.34;62.47
73141;SHT31;61339;50.558;4.696;2023-08-08T09:07:02;20.49;60.33
73141;SHT31;61339;50.558;4.696;2023-08-08T09:09:33;20.74;59.60
73141;SHT31;61339;50.558;4.696;2023-08-08T09:11:59;20.96;57.88
73141;SHT31;61339;50.558;4.696;2023-08-08T09:14:25;21.26;56.78
73141;SHT31;61339;50.558;4.696;2023-08-08T09:16:53;21.53;55.13
73141;SHT31;61339;50.558;4.696;2023-08-08T09:19:19;21.87;54.87
73141;SHT31;61339;50.558;4.696;2023-08-08T09:21:46;22.11;53.95
73141;SHT31;61339;50.558;4.696;2023-08-08T09:24:12;22.23;52.86
73141;SHT31;61339;50.558;4.696;2023-08-08T09:26:39;22.33;52.78
73141;SHT31;61339;50.558;4.696;2023-08-08T09:29:04;22.74;51.70
73141;SHT31;61339;50.558;4.696;2023-08-08T09:31:31;23.55;50.05
73141;SHT31;61339;50.558;4.696;2023-08-08T09:34:03;23.61;49.45
73141;SHT31;61339;50.558;4.696;2023-08-08T09:36:29;23.40;49.62
73141;SHT31;61339;50.558;4.696;2023-08-08T09:38:55;22.76;49.84
73141;SHT31;61339;50.558;4.696;2023-08-08T09:41:22;22.84;50.83
73141;SHT31;61339;50.558;4.696;2023-08-08T09:43:48;23.62;49.93
73141;SHT31;61339;50.558;4.696;2023-08-08T09:46:14;23.86;48.84
73141;SHT31;61339;50.558;4.696;2023-08-08T09:48:41;23.85;48.78
73141;SHT31;61339;50.558;4.696;2023-08-08T09:51:07;23.81;48.46
73141;SHT31;61339;50.558;4.696;2023-08-08T09:53:33;23.68;47.29
73141;SHT31;61339;50.558;4.696;2023-08-08T09:56:03;24.19;45.95
73141;SHT31;61339;50.558;4.696;2023-08-08T09:58:29;24.68;45.69
73141;SHT31;61339;50.558;4.696;2023-08-08T10:00:55;24.94;45.96
73141;SHT31;61339;50.558;4.696;2023-08-08T10:03:22;24.80;45.64
73141;SHT31;61339;50.558;4.696;2023-08-08T10:05:48;24.78;46.13
73141;SHT31;61339;50.558;4.696;2023-08-08T10:08:16;24.57;46.03
73141;SHT31;61339;50.558;4.696;2023-08-08T10:10:46;24.53;46.40
73141;SHT31;61339;50.558;4.696;2023-08-08T10:13:24;24.60;44.83
73141;SHT31;61339;50.558;4.696;2023-08-08T10:15:50;24.72;44.70
73141;SHT31;61339;50.558;4.696;2023-08-08T10:18:17;24.77;45.05
73141;SHT31;61339;50.558;4.696;2023-08-08T10:20:44;24.60;45.68
73141;SHT31;61339;50.558;4.696;2023-08-08T10:23:14;24.19;45.10
73141;SHT31;61339;50.558;4.696;2023-08-08T10:25:47;23.42;45.78
73141;SHT31;61339;50.558;4.696;2023-08-08T10:28:14;22.56;46.89
73141;SHT31;61339;50.558;4.696;2023-08-08T10:30:42;22.21;48.24
73141;SHT31;61339;50.558;4.696;2023-08-08T10:33:16;22.06;48.12
73141;SHT31;61339;50.558;4.696;2023-08-08T10:35:54;21.88;48.13
73141;SHT31;61339;50.558;4.696;2023-08-08T10:38:20;21.95;49.19
73141;SHT31;61339;50.558;4.696;2023-08-08T10:40:47;21.93;48.95
73141;SHT31;61339;50.558;4.696;2023-08-08T10:43:12;22.01;49.03
73141;SHT31;61339;50.558;4.696;2023-08-08T10:45:41;22.35;48.48
73141;SHT31;61339;50.558;4.696;2023-08-08T10:48:09;22.83;47.69
73141;SHT31;61339;50.558;4.696;2023-08-08T10:50:39;23.11;47.00
73141;SHT31;61339;50.558;4.696;2023-08-08T10:53:08;22.86;47.73
73141;SHT31;61339;50.558;4.696;2023-08-08T10:55:36;23.03;47.80
73141;SHT31;61339;50.558;4.696;2023-08-08T11:00:36;23.75;46.37
73141;SHT31;61339;50.558;4.696;2023-08-08T11:03:03;23.76;46.04
73141;SHT31;61339;50.558;4.696;2023-08-08T11:05:33;23.90;45.99
73141;SHT31;61339;50.558;4.696;2023-08-08T11:08:04;23.66;45.91
73141;SHT31;61339;50.558;4.696;2023-08-08T11:10:35;23.27;46.38
73141;SHT31;61339;50.558;4.696;2023-08-08T11:13:02;23.07;47.16
73141;SHT31;61339;50.558;4.696;2023-08-08T11:15:28;22.99;47.62
73141;SHT31;61339;50.558;4.696;2023-08-08T11:17:57;23.25;47.37
73141;SHT31;61339;50.558;4.696;2023-08-08T11:20:23;23.31;47.13
73141;SHT31;61339;50.558;4.696;2023-08-08T11:22:53;23.50;47.03
73141;SHT31;61339;50.558;4.696;2023-08-08T11:25:25;23.86;46.77
73141;SHT31;61339;50.558;4.696;2023-08-08T11:27:54;24.03;45.37
73141;SHT31;61339;50.558;4.696;2023-08-08T11:30:20;23.75;46.17
73141;SHT31;61339;50.558;4.696;2023-08-08T11:32:47;24.94;44.14
73141;SHT31;61339;50.558;4.696;2023-08-08T11:35:16;26.27;42.17
73141;SHT31;61339;50.558;4.696;2023-08-08T11:37:46;26.28;41.28
73141;SHT31;61339;50.558;4.696;2023-08-08T11:40:12;25.86;41.80
73141;SHT31;61339;50.558;4.696;2023-08-08T11:42:39;25.69;42.10
73141;SHT31;61339;50.558;4.696;2023-08-08T11:45:04;25.60;42.25
73141;SHT31;61339;50.558;4.696;2023-08-08T11:47:32;26.83;40.08
73141;SHT31;61339;50.558;4.696;2023-08-08T11:50:02;27.30;39.32
73141;SHT31;61339;50.558;4.696;2023-08-08T11:52:28;25.96;41.68
73141;SHT31;61339;50.558;4.696;2023-08-08T11:54:55;24.60;44.13
73141;SHT31;61339;50.558;4.696;2023-08-08T11:57:20;23.96;45.58
73141;SHT31;61339;50.558;4.696;2023-08-08T11:59:48;23.76;46.96
73141;SHT31;61339;50.558;4.696;2023-08-08T12:02:14;23.83;47.23
73141;SHT31;61339;50.558;4.696;2023-08-08T12:04:44;23.45;48.34
73141;SHT31;61339;50.558;4.696;2023-08-08T12:07:09;23.04;49.23
73141;SHT31;61339;50.558;4.696;2023-08-08T12:09:36;22.76;49.97
73141;SHT31;61339;50.558;4.696;2023-08-08T12:12:03;22.51;50.23
73141;SHT31;61339;50.558;4.696;2023-08-08T12:14:29;22.21;51.21
73141;SHT31;61339;50.558;4.696;2023-08-08T12:16:55;21.84;50.92
73141;SHT31;61339;50.558;4.696;2023-08-08T12:19:24;21.55;51.67
73141;SHT31;61339;50.558;4.696;2023-08-08T12:21:51;21.30;52.30
73141;SHT31;61339;50.558;4.696;2023-08-08T12:24:18;21.19;52.58
73141;SHT31;61339;50.558;4.696;2023-08-08T12:26:43;21.06;52.81
73141;SHT31;61339;50.558;4.696;2023-08-08T12:29:09;20.96;53.01
73141;SHT31;61339;50.558;4.696;2023-08-08T12:31:34;20.96;53.50
73141;SHT31;61339;50.558;4.696;2023-08-08T12:34:00;21.00;52.85
73141;SHT31;61339;50.558;4.696;2023-08-08T12:36:26;21.16;52.74
73141;SHT31;61339;50.558;4.696;2023-08-08T12:38:51;21.43;52.18
73141;SHT31;61339;50.558;4.696;2023-08-08T12:41:17;21.58;51.89
73141;SHT31;61339;50.558;4.696;2023-08-08T12:43:42;21.70;51.28
73141;SHT31;61339;50.558;4.696;2023-08-08T12:46:08;21.97;51.04
73141;SHT31;61339;50.558;4.696;2023-08-08T12:48:34;22.28;50.64
73141;SHT31;61339;50.558;4.696;2023-08-08T12:50:59;22.52;49.60
73141;SHT31;61339;50.558;4.696;2023-08-08T12:53:25;22.42;49.55
73141;SHT31;61339;50.558;4.696;2023-08-08T12:55:50;22.29;50.65
73141;SHT31;61339;50.558;4.696;2023-08-08T12:58:17;22.28;50.49
73141;SHT31;61339;50.558;4.696;2023-08-08T13:00:42;22.35;50.34
73141;SHT31;61339;50.558;4.696;2023-08-08T13:03:08;22.42;50.61
73141;SHT31;61339;50.558;4.696;2023-08-08T13:05:33;22.42;50.68
73141;SHT31;61339;50.558;4.696;2023-08-08T13:07:59;22.51;51.04
73141;SHT31;61339;50.558;4.696;2023-08-08T13:10:24;22.59;50.70
73141;SHT31;61339;50.558;4.696;2023-08-08T13:12:50;22.42;49.96
73141;SHT31;61339;50.558;4.696;2023-08-08T13:15:16;22.38;50.42
73141;SHT31;61339;50.558;4.696;2023-08-08T13:17:41;22.51;50.09
73141;SHT31;61339;50.558;4.696;2023-08-08T13:20:07;22.56;50.12
73141;SHT31;61339;50.558;4.696;2023-08-08T13:22:33;22.74;50.06
73141;SHT31;61339;50.558;4.696;2023-08-08T13:24:58;23.03;49.84
73141;SHT31;61339;50.558;4.696;2023-08-08T13:27:24;22.94;49.60
73141;SHT31;61339;50.558;4.696;2023-08-08T13:29:49;22.80;49.93
73141;SHT31;61339;50.558;4.696;2023-08-08T13:32:15;22.62;50.23
73141;SHT31;61339;50.558;4.696;2023-08-08T13:34:40;22.39;51.24
73141;SHT31;61339;50.558;4.696;2023-08-08T13:37:05;22.42;51.77
73141;SHT31;61339;50.558;4.696;2023-08-08T13:39:31;22.48;52.19
73141;SHT31;61339;50.558;4.696;2023-08-08T13:41:56;22.55;51.19
73141;SHT31;61339;50.558;4.696;2023-08-08T13:44:22;22.43;49.45
73141;SHT31;61339;50.558;4.696;2023-08-08T13:46:47;22.28;49.79
73141;SHT31;61339;50.558;4.696;2023-08-08T13:49:13;22.16;49.81
73141;SHT31;61339;50.558;4.696;2023-08-08T13:51:38;22.04;50.47
73141;SHT31;61339;50.558;4.696;2023-08-08T13:54:04;21.98;51.16
73141;SHT31;61339;50.558;4.696;2023-08-08T13:56:29;21.97;50.81
73141;SHT31;61339;50.558;4.696;2023-08-08T13:58:55;21.97;50.84
73141;SHT31;61339;50.558;4.696;2023-08-08T14:01:20;22.05;51.71
73141;SHT31;61339;50.558;4.696;2023-08-08T14:03:46;22.02;50.99
73141;SHT31;61339;50.558;4.696;2023-08-08T14:06:12;22.09;51.39
73141;SHT31;61339;50.558;4.696;2023-08-08T14:08:37;22.19;51.34
73141;SHT31;61339;50.558;4.696;2023-08-08T14:11:03;22.35;50.71
73141;SHT31;61339;50.558;4.696;2023-08-08T14:13:28;22.36;50.29
73141;SHT31;61339;50.558;4.696;2023-08-08T14:15:53;22.26;50.30
73141;SHT31;61339;50.558;4.696;2023-08-08T14:18:19;22.08;50.06
73141;SHT31;61339;50.558;4.696;2023-08-08T14:20:45;21.90;50.91
73141;SHT31;61339;50.558;4.696;2023-08-08T14:23:10;21.75;50.97
73141;SHT31;61339;50.558;4.696;2023-08-08T14:25:36;21.84;51.52
73141;SHT31;61339;50.558;4.696;2023-08-08T14:28:01;21.83;51.84
73141;SHT31;61339;50.558;4.696;2023-08-08T14:30:29;21.70;52.08
73141;SHT31;61339;50.558;4.696;2023-08-08T14:32:56;21.63;53.09
73141;SHT31;61339;50.558;4.696;2023-08-08T14:35:21;21.50;53.19
73141;SHT31;61339;50.558;4.696;2023-08-08T14:37:47;21.39;53.44
73141;SHT31;61339;50.558;4.696;2023-08-08T14:40:13;21.30;53.93
73141;SHT31;61339;50.558;4.696;2023-08-08T14:42:38;21.26;54.18
73141;SHT31;61339;50.558;4.696;2023-08-08T14:45:04;21.29;53.95
73141;SHT31;61339;50.558;4.696;2023-08-08T14:47:30;21.25;53.48
73141;SHT31;61339;50.558;4.696;2023-08-08T14:49:56;21.29;53.74
73141;SHT31;61339;50.558;4.696;2023-08-08T14:52:21;21.22;53.97
73141;SHT31;61339;50.558;4.696;2023-08-08T14:54:47;21.07;53.82
73141;SHT31;61339;50.558;4.696;2023-08-08T14:57:12;21.05;54.44
73141;SHT31;61339;50.558;4.696;2023-08-08T14:59:37;20.99;54.68
73141;SHT31;61339;50.558;4.696;2023-08-08T15:02:03;20.99;54.07
73141;SHT31;61339;50.558;4.696;2023-08-08T15:04:28;20.99;53.86
73141;SHT31;61339;50.558;4.696;2023-08-08T15:06:54;20.98;54.07
73141;SHT31;61339;50.558;4.696;2023-08-08T15:09:19;21.16;53.77
73141;SHT31;61339;50.558;4.696;2023-08-08T15:11:44;21.20;53.31
73141;SHT31;61339;50.558;4.696;2023-08-08T15:14:10;21.20;54.63
73141;SHT31;61339;50.558;4.696;2023-08-08T15:16:35;21.22;54.65
73141;SHT31;61339;50.558;4.696;2023-08-08T15:19:01;21.30;54.59
73141;SHT31;61339;50.558;4.696;2023-08-08T15:21:27;21.25;55.64
73141;SHT31;61339;50.558;4.696;2023-08-08T15:23:53;21.25;56.34
73141;SHT31;61339;50.558;4.696;2023-08-08T15:26:18;21.23;56.27
73141;SHT31;61339;50.558;4.696;2023-08-08T15:28:48;21.18;57.17